createdAt,value
2019-02-16T00:02:12.197Z,15.97
2019-02-16T00:07:18.033Z,12.83
2019-02-16T00:12:23.549Z,17.77
2019-02-16T00:17:29.019Z,11.77
2019-02-16T00:22:34.519Z,15.75
2019-02-16T00:27:39.954Z,17.50
2019-02-16T00:32:48.205Z,16.70
2019-02-16T00:37:53.924Z,12.23
2019-02-16T00:42:59.505Z,11.47
2019-02-16T00:48:05.108Z,12.07
2019-02-16T00:53:10.667Z,11.60
2019-02-16T00:58:16.082Z,12.07
2019-02-16T01:03:21.451Z,18.67
2019-02-16T01:08:26.906Z,11.57
2019-02-16T01:13:32.661Z,27.00
2019-02-16T01:18:38.232Z,17.20
2019-02-16T01:23:43.596Z,17.17
2019-02-16T01:28:48.922Z,7.20
2019-02-16T01:33:54.473Z,19.97
2019-02-16T01:38:59.978Z,25.43
2019-02-16T01:44:06.339Z,25.30
2019-02-16T01:49:11.717Z,20.20
2019-02-16T01:54:17.116Z,14.00
2019-02-16T01:59:22.604Z,17.10
2019-02-16T02:04:28.452Z,22.63
2019-02-16T02:09:33.898Z,24.07
2019-02-16T02:14:39.358Z,18.80
2019-02-16T02:19:44.726Z,15.93
2019-02-16T02:24:50.197Z,20.40
2019-02-16T02:29:55.697Z,18.80
2019-02-16T02:35:01.217Z,19.30
2019-02-16T02:45:33.309Z,23.17
2019-02-16T02:50:38.742Z,22.40
2019-02-16T02:55:44.323Z,28.23
2019-02-16T03:00:49.888Z,19.43
2019-02-16T03:05:55.311Z,20.57
2019-02-16T03:11:00.793Z,21.40
2019-02-16T03:16:06.378Z,19.90
2019-02-16T03:21:11.836Z,26.10
2019-02-16T03:26:29.227Z,25.53
2019-02-16T03:31:52.476Z,24.92
2019-02-16T03:37:15.199Z,20.03
2019-02-16T03:42:20.636Z,25.00
2019-02-16T03:47:26.288Z,12.40
2019-02-16T03:52:31.745Z,21.53
2019-02-16T03:57:37.121Z,16.13
2019-02-16T04:02:42.541Z,24.47
2019-02-16T04:07:48.080Z,20.93
2019-02-16T04:12:53.466Z,14.67
2019-02-16T04:17:59.104Z,18.00
2019-02-16T04:23:04.506Z,15.87
2019-02-16T04:28:10.046Z,17.47
2019-02-16T04:33:15.434Z,20.60
2019-02-16T04:38:20.911Z,18.43
2019-02-16T04:43:26.324Z,17.40
2019-02-16T04:48:31.939Z,21.03
2019-02-16T04:53:37.270Z,22.10
2019-02-16T04:58:42.851Z,18.80
2019-02-16T05:03:48.338Z,14.63
2019-02-16T05:08:54.056Z,25.73
2019-02-16T05:13:59.529Z,15.57
2019-02-16T05:19:05.113Z,10.13
2019-02-16T05:24:10.541Z,17.73
2019-02-16T05:29:16.029Z,21.10
2019-02-16T05:34:21.469Z,12.93
2019-02-16T05:39:26.997Z,12.63
2019-02-16T05:44:32.734Z,13.10
2019-02-16T05:49:38.348Z,15.50
2019-02-16T05:54:43.741Z,21.40
2019-02-16T05:59:49.358Z,20.67
2019-02-16T06:04:54.798Z,19.77
2019-02-16T06:10:00.324Z,19.43
2019-02-16T06:15:07.053Z,17.50
2019-02-16T06:20:12.643Z,14.60
2019-02-16T06:25:18.377Z,17.50
2019-02-16T06:30:23.955Z,18.20
2019-02-16T06:35:34.106Z,19.00
2019-02-16T06:40:41.072Z,19.10
2019-02-16T06:45:46.841Z,23.17
2019-02-16T06:50:52.261Z,17.37
2019-02-16T07:01:13.868Z,15.73
2019-02-16T07:06:19.354Z,19.77
2019-02-16T07:11:24.904Z,22.43
2019-02-16T07:16:39.086Z,19.30
2019-02-16T07:21:44.647Z,14.80
2019-02-16T07:26:50.169Z,17.10
2019-02-16T07:31:55.595Z,23.43
2019-02-16T07:37:01.144Z,21.27
2019-02-16T07:42:06.505Z,22.47
2019-02-16T07:47:20.355Z,23.00
2019-02-16T07:52:34.101Z,17.63
2019-02-16T07:57:49.490Z,20.52
2019-02-16T08:02:59.096Z,17.93
2019-02-16T08:08:09.918Z,14.43
2019-02-16T08:13:29.701Z,13.67
2019-02-16T08:18:44.106Z,11.40
2019-02-16T08:23:58.111Z,8.27
2019-02-16T08:29:20.803Z,8.93
2019-02-16T08:34:35.676Z,12.58
2019-02-16T08:39:49.065Z,11.55
2019-02-16T08:45:00.302Z,6.63
2019-02-16T08:50:24.969Z,9.87
2019-02-16T08:55:39.161Z,8.23
2019-02-16T09:00:56.116Z,3.75
2019-02-16T09:06:10.114Z,8.43
2019-02-16T09:11:29.530Z,8.20
2019-02-16T09:16:43.119Z,9.13
2019-02-16T09:21:57.702Z,9.93
2019-02-16T09:27:11.229Z,11.60
2019-02-16T09:32:32.045Z,17.37
2019-02-16T09:37:48.775Z,14.83
2019-02-16T09:43:03.699Z,16.23
2019-02-16T09:48:23.283Z,14.60
2019-02-16T09:53:38.124Z,17.60
2019-02-16T09:58:50.715Z,24.23
2019-02-16T10:04:12.060Z,23.40
2019-02-16T10:09:23.615Z,36.77
2019-02-16T10:14:37.129Z,16.80
2019-02-16T10:19:52.480Z,68.17
2019-02-16T10:25:06.130Z,20.60
2019-02-16T10:30:20.030Z,36.80
2019-02-16T10:35:31.095Z,8.20
2019-02-16T10:40:49.547Z,8.93
2019-02-16T10:46:04.108Z,17.90
2019-02-16T10:51:17.150Z,12.70
2019-02-16T10:56:32.187Z,7.67
2019-02-16T11:01:48.148Z,6.50
2019-02-16T11:06:59.170Z,10.20
2019-02-16T11:12:13.108Z,12.53
2019-02-16T11:17:29.010Z,8.13
2019-02-16T11:22:43.782Z,11.70
2019-02-16T11:27:57.668Z,7.00
2019-02-16T11:33:09.593Z,10.07
2019-02-16T11:38:27.107Z,14.17
2019-02-16T11:43:38.452Z,11.23
2019-02-16T11:48:49.902Z,13.70
2019-02-16T11:54:10.048Z,14.53
2019-02-16T11:59:24.503Z,23.83
2019-02-16T12:04:44.099Z,28.43
2019-02-16T12:09:59.379Z,35.50
2019-02-16T12:15:14.120Z,81.90
2019-02-16T12:20:33.593Z,31.23
2019-02-16T12:25:45.361Z,59.30
2019-02-16T12:30:59.160Z,63.87
2019-02-16T12:36:13.119Z,50.23
2019-02-16T12:41:26.545Z,63.40
2019-02-16T12:46:40.142Z,20.90
2019-02-16T12:52:04.501Z,24.65
2019-02-16T12:57:16.002Z,55.03
2019-02-16T13:02:31.062Z,26.67
2019-02-16T13:07:46.249Z,65.90
2019-02-16T13:13:03.064Z,66.15
2019-02-16T13:18:17.059Z,82.47
2019-02-16T13:23:30.505Z,37.03
2019-02-16T13:28:45.785Z,39.78
2019-02-16T13:33:56.638Z,18.80
2019-02-16T13:39:12.741Z,15.80
2019-02-16T13:44:27.058Z,30.20
2019-02-16T13:49:38.438Z,12.57
2019-02-16T13:54:52.210Z,15.03
2019-02-16T14:00:05.982Z,21.53
2019-02-16T14:05:22.277Z,23.90
2019-02-16T14:10:35.441Z,15.67
2019-02-16T14:15:49.001Z,14.73
2019-02-16T14:20:54.661Z,18.83
2019-02-16T14:26:00.371Z,16.23
2019-02-16T14:31:08.983Z,21.13
2019-02-16T14:36:14.560Z,19.47
2019-02-16T14:41:20.298Z,16.67
2019-02-16T14:46:28.660Z,19.83
2019-02-16T14:51:34.359Z,13.60
2019-02-16T14:56:39.818Z,15.35
2019-02-16T15:01:45.520Z,14.97
2019-02-16T15:06:51.261Z,15.77
2019-02-16T15:11:56.761Z,16.73
2019-02-16T15:17:02.219Z,10.67
2019-02-16T15:22:07.821Z,9.43
2019-02-16T15:27:13.359Z,11.90
2019-02-16T15:32:18.924Z,8.00
2019-02-16T15:37:26.803Z,11.93
2019-02-16T15:42:32.278Z,7.37
2019-02-16T15:47:37.718Z,7.57
2019-02-16T15:52:45.512Z,8.03
2019-02-16T15:57:51.358Z,7.47
2019-02-16T16:02:57.063Z,16.07
2019-02-16T16:08:11.098Z,12.50
2019-02-16T16:13:25.141Z,7.33
2019-02-16T16:18:39.120Z,7.43
2019-02-16T16:23:53.400Z,7.50
2019-02-16T16:29:10.858Z,3.87
2019-02-16T16:34:24.140Z,4.70
2019-02-16T16:39:39.137Z,6.62
2019-02-16T16:44:53.082Z,9.63
2019-02-16T16:50:18.172Z,10.03
2019-02-16T16:55:30.926Z,11.93
2019-02-16T17:00:47.810Z,12.87
2019-02-16T17:06:02.138Z,10.13
2019-02-16T17:11:19.058Z,8.50
2019-02-16T17:16:33.281Z,10.60
2019-02-16T17:21:47.077Z,10.00
2019-02-16T17:27:00.043Z,9.37
2019-02-16T17:32:14.720Z,13.50
2019-02-16T17:37:29.040Z,11.80
2019-02-16T17:42:49.860Z,10.80
2019-02-16T17:48:04.138Z,7.33
2019-02-16T17:53:19.381Z,14.60
2019-02-16T17:58:29.941Z,12.27
2019-02-16T18:03:54.319Z,9.77
2019-02-16T18:09:17.938Z,15.10
2019-02-16T18:14:32.041Z,9.60
2019-02-16T18:19:42.858Z,12.37
2019-02-16T18:25:07.361Z,13.00
2019-02-16T18:30:22.163Z,14.80
2019-02-16T18:35:36.621Z,15.20
2019-02-16T18:40:50.183Z,12.50
2019-02-16T18:46:04.217Z,20.70
2019-02-16T18:51:28.822Z,20.20
2019-02-16T18:56:53.344Z,19.33
2019-02-16T19:02:10.806Z,20.70
2019-02-16T19:07:25.143Z,14.73
2019-02-16T19:12:44.735Z,17.73
2019-02-16T19:17:58.360Z,12.03
2019-02-16T19:23:13.777Z,28.23
2019-02-16T19:28:27.587Z,20.17
2019-02-16T19:33:43.834Z,24.23
2019-02-16T19:39:01.896Z,24.17
2019-02-16T19:44:17.917Z,21.13
2019-02-16T19:49:32.137Z,24.07
2019-02-16T19:54:52.518Z,21.20
2019-02-16T20:00:06.101Z,30.33
2019-02-16T20:05:31.448Z,27.50
2019-02-16T20:10:56.057Z,18.03
2019-02-16T20:16:10.097Z,20.03
2019-02-16T20:21:32.346Z,15.83
2019-02-16T20:26:46.056Z,23.50
2019-02-16T20:32:06.193Z,18.93
2019-02-16T20:37:20.206Z,17.13
2019-02-16T20:42:33.534Z,20.97
2019-02-16T20:47:57.844Z,24.52
2019-02-16T20:53:13.077Z,24.97
2019-02-16T20:58:27.001Z,17.83
2019-02-16T21:03:41.009Z,16.30
2019-02-16T21:08:55.686Z,20.50
2019-02-16T21:14:19.986Z,15.17
2019-02-16T21:19:39.599Z,19.50
2019-02-16T21:24:51.180Z,18.77
2019-02-16T21:30:06.117Z,15.43
2019-02-16T21:35:20.101Z,13.60
2019-02-16T21:40:34.044Z,21.70
2019-02-16T21:45:52.129Z,26.17
2019-02-16T21:51:06.020Z,17.50
2019-02-16T21:56:20.062Z,20.27
2019-02-16T22:01:34.122Z,26.60
2019-02-16T22:06:53.452Z,18.03
2019-02-16T22:12:07.089Z,20.43
2019-02-16T22:17:12.523Z,18.10
2019-02-16T22:22:18.019Z,16.13
2019-02-16T22:27:23.865Z,12.63
2019-02-16T22:32:29.535Z,16.10
2019-02-16T22:37:35.017Z,17.85
2019-02-16T22:42:40.544Z,16.93
2019-02-16T22:47:46.034Z,20.63
2019-02-16T22:52:51.566Z,16.00
2019-02-16T22:57:57.076Z,19.03
2019-02-16T23:03:02.656Z,20.00
2019-02-16T23:08:08.261Z,14.90
2019-02-16T23:13:13.684Z,18.93
2019-02-16T23:18:19.437Z,15.00
2019-02-16T23:23:24.883Z,23.07
2019-02-16T23:28:38.635Z,14.38
2019-02-16T23:33:37.646Z,17.53
2019-02-16T23:38:43.039Z,16.87
2019-02-16T23:43:48.507Z,16.33
2019-02-16T23:48:53.987Z,29.33
2019-02-16T23:53:59.516Z,18.03
2019-02-16T23:59:05.152Z,17.40
